Time;durP1;ratioP1;P1;durP2;ratioP2;P2;SDS_P1;SDS_P2;PMS_P1;PMS_P2;Temp;Humidity;BMP_temperature;BMP_pressure;BME280_temperature;BME280_humidity;BME280_pressure;Samples;Min_cycle;Max_cycle;Signal;HPM_P1;HPM_P2
2022/07/31 00:00:05;;;;;;;6.13;4.43;;;;;;;24.43;59.46;99686.94;5028375;28;20111;-30
2022/07/31 00:02:30;;;;;;;7.93;4.97;;;;;;;24.27;59.63;99661.31;5028068;28;20025;-27
2022/07/31 00:04:56;;;;;;;6.82;4.90;;;;;;;24.32;60.28;99658.44;5029434;28;20043;-30
2022/07/31 00:07:21;;;;;;;7.38;4.72;;;;;;;24.46;59.86;99642.72;5029591;28;20041;-29
2022/07/31 00:09:47;;;;;;;7.93;5.15;;;;;;;24.51;59.98;99649.16;5029723;28;20041;-31
2022/07/31 00:12:13;;;;;;;8.25;5.30;;;;;;;24.85;58.95;99660.00;5029535;28;20037;-28
2022/07/31 00:14:39;;;;;;;11.18;5.10;;;;;;;24.94;58.46;99681.00;5028102;28;20056;-29
2022/07/31 00:17:04;;;;;;;6.82;4.78;;;;;;;24.97;58.31;99672.19;5029395;28;20053;-28
2022/07/31 00:19:30;;;;;;;7.25;4.85;;;;;;;24.82;58.43;99657.91;5029268;28;20412;-29
2022/07/31 00:21:57;;;;;;;7.75;4.75;;;;;;;24.81;58.16;99626.31;5029291;28;20037;-28
2022/07/31 00:24:23;;;;;;;6.43;5.25;;;;;;;24.94;58.21;99638.16;5029511;28;20408;-30
2022/07/31 00:26:48;;;;;;;7.22;4.93;;;;;;;25.02;57.85;99642.00;5028951;28;20033;-27
2022/07/31 00:29:14;;;;;;;9.60;5.28;;;;;;;24.92;58.59;99625.97;5029124;28;20509;-28
2022/07/31 00:31:39;;;;;;;6.85;4.82;;;;;;;25.03;57.93;99621.78;5029263;28;20022;-28
2022/07/31 00:34:04;;;;;;;6.65;5.15;;;;;;;24.93;58.68;99606.56;5027356;28;20029;-30
2022/07/31 00:36:30;;;;;;;6.40;5.05;;;;;;;24.92;58.91;99607.69;5029242;28;20034;-28
2022/07/31 00:38:55;;;;;;;9.05;4.95;;;;;;;25.22;58.08;99618.69;5029229;28;20083;-27
2022/07/31 00:41:21;;;;;;;7.57;5.90;;;;;;;25.23;58.64;99617.53;5029038;28;20033;-30
2022/07/31 00:43:46;;;;;;;7.20;5.18;;;;;;;24.88;59.10;99590.34;5029016;28;20086;-29
2022/07/31 00:46:12;;;;;;;7.32;5.18;;;;;;;25.11;58.79;99610.03;5027776;28;20059;-30
2022/07/31 00:48:37;;;;;;;7.53;4.80;;;;;;;25.29;58.32;99607.25;5027429;28;20025;-29
2022/07/31 00:51:03;;;;;;;7.72;5.30;;;;;;;25.23;57.80;99615.63;5028853;28;20059;-31
2022/07/31 00:53:28;;;;;;;9.77;5.57;;;;;;;25.22;58.04;99619.47;5029228;28;20417;-29
2022/07/31 00:55:56;;;;;;;11.10;5.53;;;;;;;25.11;58.46;99623.69;5028926;28;20071;-27
2022/07/31 00:58:21;;;;;;;7.93;5.57;;;;;;;25.08;58.34;99623.53;5029070;28;20075;-27
2022/07/31 01:00:47;;;;;;;6.10;4.80;;;;;;;25.15;57.95;99613.72;5028816;28;20483;-29
2022/07/31 01:03:13;;;;;;;8.18;5.43;;;;;;;25.22;58.10;99624.94;5028851;28;20028;-28
2022/07/31 01:05:38;;;;;;;8.38;5.55;;;;;;;25.05;58.88;99630.44;5027435;28;20517;-27
2022/07/31 01:08:04;;;;;;;8.88;5.28;;;;;;;25.23;58.02;99632.00;5029230;28;20450;-30
2022/07/31 01:10:54;;;;;;;10.40;5.15;;;;;;;25.31;57.53;99649.44;5028569;28;20508;-29
2022/07/31 01:13:37;;;;;;;6.85;4.78;;;;;;;24.89;58.69;99659.34;5027295;28;20108;-27
2022/07/31 01:16:06;;;;;;;7.10;5.43;;;;;;;24.37;60.04;99650.09;5028438;28;20033;-28
2022/07/31 01:18:34;;;;;;;8.93;5.68;;;;;;;24.23;61.56;99661.16;5026670;28;20073;-27
2022/07/31 01:21:06;;;;;;;7.93;5.63;;;;;;;24.25;61.63;99648.03;5027081;28;20033;-29
2022/07/31 01:23:37;;;;;;;10.02;5.90;;;;;;;24.33;61.76;99672.84;5028603;28;20038;-29
2022/07/31 01:26:29;;;;;;;7.97;5.60;;;;;;;24.44;61.36;99683.13;5028428;28;20079;-28
2022/07/31 01:29:38;;;;;;;7.57;5.55;;;;;;;24.19;62.74;99676.53;5022669;28;20046;-28
2022/07/31 01:32:09;;;;;;;7.35;5.00;;;;;;;23.83;63.68;99647.66;5025084;28;20393;-27
2022/07/31 01:34:47;;;;;;;8.00;5.95;;;;;;;23.91;64.51;99672.50;5027884;28;20033;-27
2022/07/31 01:37:12;;;;;;;7.43;6.05;;;;;;;23.95;64.32;99674.25;5027220;28;20022;-28
2022/07/31 01:39:44;;;;;;;7.07;5.35;;;;;;;24.01;64.02;99664.03;5028468;28;20052;-28
2022/07/31 01:42:13;;;;;;;7.90;5.65;;;;;;;24.08;64.08;99669.78;5026722;28;20033;-30
2022/07/31 01:44:42;;;;;;;7.93;5.65;;;;;;;24.08;64.13;99669.00;5026516;28;20121;-28
2022/07/31 01:47:10;;;;;;;9.02;6.05;;;;;;;24.41;63.01;99672.84;5026868;28;20026;-28
2022/07/31 01:49:37;;;;;;;8.07;6.03;;;;;;;24.63;62.23;99662.94;5026863;28;20029;-30
2022/07/31 01:52:04;;;;;;;7.07;5.50;;;;;;;24.25;62.72;99637.13;5026956;28;20091;-27
2022/07/31 01:54:32;;;;;;;7.55;5.55;;;;;;;24.43;62.55;99651.53;5026314;28;20034;-29
2022/07/31 01:57:00;;;;;;;8.55;6.07;;;;;;;24.49;62.22;99667.72;5026693;28;20124;-31
2022/07/31 01:59:28;;;;;;;7.38;5.72;;;;;;;24.25;63.42;99679.91;5026658;28;20037;-28
2022/07/31 02:01:54;;;;;;;7.82;5.38;;;;;;;24.17;63.96;99678.78;5026957;28;20033;-27
2022/07/31 02:04:21;;;;;;;7.55;5.72;;;;;;;23.88;65.15;99664.97;5026802;28;20095;-31
2022/07/31 02:06:48;;;;;;;8.88;5.90;;;;;;;23.75;65.50;99655.78;5026724;28;20040;-32
2022/07/31 02:09:18;;;;;;;8.35;6.60;;;;;;;23.61;66.35;99636.84;5028154;28;20069;-28
2022/07/31 02:11:44;;;;;;;7.80;5.72;;;;;;;23.82;66.35;99656.13;5027977;28;20112;-27
2022/07/31 02:14:10;;;;;;;7.72;6.22;;;;;;;23.95;66.36;99655.19;5027901;28;20519;-30
2022/07/31 02:16:37;;;;;;;7.90;6.72;;;;;;;23.98;65.85;99665.44;5027479;28;20030;-27
2022/07/31 02:19:06;;;;;;;8.17;6.23;;;;;;;23.72;67.25;99662.66;5028272;28;20046;-28
2022/07/31 02:21:32;;;;;;;11.60;6.70;;;;;;;23.50;67.68;99636.34;5026493;28;20814;-33
2022/07/31 02:23:57;;;;;;;10.63;6.60;;;;;;;23.59;68.00;99656.19;5027753;28;20084;-27
2022/07/31 02:26:26;;;;;;;8.68;6.35;;;;;;;23.66;67.98;99648.38;5027702;28;20038;-30
2022/07/31 02:28:52;;;;;;;8.00;6.55;;;;;;;23.80;67.61;99658.38;5026446;28;20025;-27
2022/07/31 02:31:21;;;;;;;9.68;6.50;;;;;;;23.79;67.51;99667.66;5026564;28;20124;-28
2022/07/31 02:33:48;;;;;;;8.80;6.85;;;;;;;23.80;67.55;99674.69;5027894;28;20033;-29
2022/07/31 02:36:16;;;;;;;7.72;6.63;;;;;;;23.62;68.39;99680.09;5026370;28;20025;-28
2022/07/31 02:38:43;;;;;;;7.93;6.28;;;;;;;23.31;68.84;99657.53;5027255;28;20025;-27
2022/07/31 02:41:10;;;;;;;9.20;7.13;;;;;;;23.27;69.12;99674.50;5026128;28;20064;-27
2022/07/31 02:43:37;;;;;;;8.88;6.53;;;;;;;23.20;69.68;99667.91;5026243;28;20057;-31
2022/07/31 02:46:04;;;;;;;9.60;6.65;;;;;;;23.14;69.68;99669.94;5028014;28;20120;-27
2022/07/31 02:48:30;;;;;;;8.95;6.63;;;;;;;23.16;68.76;99675.09;5025899;28;20109;-27
2022/07/31 02:50:57;;;;;;;9.13;6.55;;;;;;;23.00;68.92;99666.47;5027545;28;20619;-33
2022/07/31 02:53:23;;;;;;;7.88;6.43;;;;;;;23.01;68.86;99676.25;5030650;28;20076;-29
2022/07/31 02:55:50;;;;;;;7.55;5.40;;;;;;;22.78;69.59;99657.25;5030978;28;20394;-27
2022/07/31 02:58:16;;;;;;;7.63;6.00;;;;;;;22.90;68.98;99667.53;5031128;28;20041;-30
2022/07/31 03:00:41;;;;;;;6.80;5.90;;;;;;;22.99;68.49;99651.28;5046059;28;20033;-28
2022/07/31 03:03:07;;;;;;;7.70;5.88;;;;;;;22.88;69.10;99677.94;5030767;28;20025;-27
2022/07/31 03:05:32;;;;;;;7.93;5.88;;;;;;;22.63;69.33;99663.06;5030594;28;20061;-30
2022/07/31 03:07:58;;;;;;;7.55;6.32;;;;;;;22.78;69.11;99662.69;5030826;28;20115;-31
2022/07/31 03:10:23;;;;;;;7.45;5.85;;;;;;;22.89;68.77;99674.09;5030423;28;20371;-27
2022/07/31 03:12:52;;;;;;;8.85;5.90;;;;;;;22.90;68.54;99674.91;5031043;28;20122;-29
2022/07/31 03:15:19;;;;;;;8.20;6.20;;;;;;;22.83;68.38;99670.72;5013141;28;20489;-28
2022/07/31 03:17:46;;;;;;;7.55;6.00;;;;;;;22.89;68.47;99678.75;5030403;28;20089;-27
2022/07/31 03:20:13;;;;;;;8.77;6.15;;;;;;;22.79;68.46;99680.59;5029178;28;20037;-30
2022/07/31 03:22:39;;;;;;;10.18;5.40;;;;;;;22.86;68.51;99686.41;5028793;28;20034;-30
2022/07/31 03:25:06;;;;;;;8.43;5.72;;;;;;;22.79;68.58;99688.75;5028874;28;20053;-30
2022/07/31 03:27:32;;;;;;;8.50;5.50;;;;;;;22.63;68.84;99671.22;5028973;28;20065;-31
2022/07/31 03:29:57;;;;;;;7.75;5.75;;;;;;;22.77;69.20;99701.84;5029196;28;20060;-28
2022/07/31 03:32:23;;;;;;;7.07;5.40;;;;;;;22.78;68.68;99689.88;5030248;28;20436;-28
2022/07/31 03:34:48;;;;;;;8.85;6.13;;;;;;;22.98;68.12;99693.19;5030021;28;20116;-30
2022/07/31 03:37:14;;;;;;;7.78;5.40;;;;;;;23.14;67.61;99705.31;5028755;28;20029;-29
2022/07/31 03:39:40;;;;;;;7.80;5.53;;;;;;;23.17;66.63;99701.97;5030283;28;20503;-29
2022/07/31 03:42:10;;;;;;;9.45;4.72;;;;;;;22.96;66.76;99676.38;5028783;28;20065;-28
2022/07/31 03:44:36;;;;;;;7.07;5.15;;;;;;;22.94;66.94;99697.63;5029002;28;20497;-29
2022/07/31 03:47:02;;;;;;;8.90;5.15;;;;;;;22.92;67.15;99706.09;5028902;28;20637;-28
2022/07/31 03:49:29;;;;;;;8.75;5.03;;;;;;;22.74;67.76;99709.81;5028776;28;20072;-31
2022/07/31 03:51:55;;;;;;;7.00;4.53;;;;;;;22.53;68.45;99704.06;5028647;28;20117;-28
2022/07/31 03:54:20;;;;;;;6.75;4.93;;;;;;;22.60;67.82;99693.59;5028132;28;20120;-29
2022/07/31 03:56:49;;;;;;;7.43;4.78;;;;;;;22.65;68.30;99707.03;5029873;28;20030;-31
2022/07/31 03:59:15;;;;;;;7.78;4.60;;;;;;;22.62;68.30;99713.91;5028350;28;20041;-30
2022/07/31 04:01:41;;;;;;;8.15;5.07;;;;;;;22.40;69.10;99701.09;5028438;28;20457;-30
2022/07/31 04:04:07;;;;;;;8.18;5.30;;;;;;;22.17;70.15;99693.97;5027511;28;20062;-28
2022/07/31 04:06:32;;;;;;;8.50;5.95;;;;;;;22.11;70.42;99703.31;5029479;28;20021;-31
2022/07/31 04:09:00;;;;;;;7.13;5.45;;;;;;;21.83;72.30;99708.81;5029455;28;20030;-32
2022/07/31 04:11:26;;;;;;;7.38;5.68;;;;;;;21.78;72.37;99696.16;5029892;28;20066;-28
2022/07/31 04:13:52;;;;;;;8.48;5.82;;;;;;;21.80;73.03;99714.81;5028185;28;20037;-27
2022/07/31 04:16:18;;;;;;;9.25;5.90;;;;;;;21.70;72.97;99688.72;5029691;28;20094;-31
2022/07/31 04:18:43;;;;;;;8.82;5.75;;;;;;;21.98;73.07;99722.06;5028999;28;20057;-28
2022/07/31 04:21:09;;;;;;;8.00;5.65;;;;;;;21.86;73.30;99713.63;5029309;28;20466;-28
2022/07/31 04:23:34;;;;;;;9.32;6.45;;;;;;;21.95;73.63;99717.25;5029074;28;20040;-30
2022/07/31 04:26:00;;;;;;;8.93;5.93;;;;;;;22.04;73.42;99726.25;5029343;28;20086;-30
2022/07/31 04:28:25;;;;;;;9.27;6.28;;;;;;;22.14;72.88;99719.03;5029066;28;20116;-30
2022/07/31 04:30:51;;;;;;;9.65;6.60;;;;;;;22.08;72.72;99705.53;5029237;28;20124;-31
2022/07/31 04:33:17;;;;;;;8.15;6.22;;;;;;;22.03;73.29;99718.44;5029173;28;20417;-28
2022/07/31 04:35:42;;;;;;;10.13;6.18;;;;;;;22.16;72.66;99701.31;5027610;28;20029;-29
2022/07/31 04:38:08;;;;;;;8.23;5.75;;;;;;;22.33;72.85;99708.88;5029084;28;20036;-33
2022/07/31 04:40:33;;;;;;;9.75;6.20;;;;;;;22.45;72.18;99703.69;5028838;28;20083;-31
2022/07/31 04:42:58;;;;;;;8.90;5.90;;;;;;;22.64;70.83;99697.28;5029152;28;20033;-29
2022/07/31 04:45:24;;;;;;;7.30;5.70;;;;;;;22.48;70.77;99690.63;5028809;28;20018;-30
2022/07/31 04:47:49;;;;;;;8.48;5.63;;;;;;;22.54;71.13;99716.56;5028825;28;20037;-29
2022/07/31 04:50:15;;;;;;;8.52;5.90;;;;;;;22.74;70.67;99707.09;5028791;28;20032;-33
2022/07/31 04:52:40;;;;;;;8.27;5.95;;;;;;;22.70;69.96;99696.06;5028537;28;20033;-28
2022/07/31 04:55:06;;;;;;;8.88;5.90;;;;;;;22.78;70.46;99700.75;5027439;28;20104;-28
2022/07/31 04:57:32;;;;;;;9.38;5.47;;;;;;;22.85;69.51;99698.38;5028700;28;20026;-33
2022/07/31 04:59:57;;;;;;;7.72;4.97;;;;;;;22.84;68.38;99688.63;5029087;28;20456;-29
2022/07/31 05:02:23;;;;;;;8.43;5.30;;;;;;;22.87;68.25;99693.44;5027132;28;20072;-30
2022/07/31 05:04:48;;;;;;;8.05;5.10;;;;;;;22.77;69.24;99704.56;5028371;28;20040;-28
2022/07/31 05:07:14;;;;;;;7.53;5.22;;;;;;;23.00;68.10;99699.91;5028494;28;20040;-33
2022/07/31 05:09:39;;;;;;;8.07;4.93;;;;;;;23.06;67.90;99684.31;5028594;28;20037;-29
2022/07/31 05:12:05;;;;;;;7.50;4.95;;;;;;;23.33;66.73;99707.00;5028526;28;20041;-32
2022/07/31 05:14:30;;;;;;;7.63;4.65;;;;;;;23.32;66.63;99705.41;5028109;28;20033;-28
2022/07/31 05:16:56;;;;;;;9.27;5.00;;;;;;;23.56;66.25;99716.72;5027655;28;20099;-37
2022/07/31 05:19:21;;;;;;;7.60;4.97;;;;;;;23.39;66.56;99703.03;5043631;28;20409;-28
2022/07/31 05:21:46;;;;;;;8.07;4.80;;;;;;;23.79;65.64;99716.69;5027977;28;20082;-31
2022/07/31 05:24:12;;;;;;;8.73;4.80;;;;;;;23.90;64.37;99720.69;5028530;28;20488;-27
2022/07/31 05:26:37;;;;;;;7.45;4.85;;;;;;;23.94;64.38;99724.41;5028175;28;20029;-27
2022/07/31 05:29:03;;;;;;;7.53;4.85;;;;;;;24.01;63.70;99730.19;5026969;28;20133;-27
2022/07/31 05:31:29;;;;;;;7.70;4.70;;;;;;;23.73;64.65;99723.34;5028095;28;20037;-26
2022/07/31 05:33:56;;;;;;;7.82;5.78;;;;;;;23.98;64.25;99725.38;5043381;28;20091;-28
2022/07/31 05:36:22;;;;;;;13.77;9.98;;;;;;;24.18;62.14;99707.63;5026438;28;20037;-31
2022/07/31 05:38:47;;;;;;;7.30;4.78;;;;;;;24.18;61.96;99723.16;5026369;28;20091;-26
2022/07/31 05:41:13;;;;;;;10.02;6.28;;;;;;;24.20;61.52;99721.72;5027929;28;20420;-27
2022/07/31 05:43:39;;;;;;;7.55;5.40;;;;;;;24.47;61.20;99734.25;5028305;28;20039;-28
2022/07/31 05:46:05;;;;;;;8.27;4.13;;;;;;;24.40;60.08;99709.41;5028362;28;20452;-26
2022/07/31 05:48:31;;;;;;;6.65;4.45;;;;;;;24.40;60.41;99723.03;5026340;28;20520;-28
2022/07/31 05:50:57;;;;;;;7.85;4.35;;;;;;;24.52;60.09;99716.16;5026481;28;20112;-29
2022/07/31 05:53:23;;;;;;;6.47;4.55;;;;;;;24.70;58.85;99706.06;5026838;28;20037;-29
2022/07/31 05:55:49;;;;;;;7.10;3.85;;;;;;;24.81;58.66;99710.88;5028296;28;20032;-28
2022/07/31 05:58:17;;;;;;;6.90;4.13;;;;;;;24.84;57.77;99720.31;5026660;28;20029;-30
2022/07/31 06:00:45;;;;;;;9.80;4.47;;;;;;;24.81;58.76;99718.25;5009987;28;20033;-26
2022/07/31 06:03:12;;;;;;;6.30;4.32;;;;;;;25.12;58.09;99707.13;5028168;28;20049;-29
2022/07/31 06:05:38;;;;;;;7.88;4.35;;;;;;;25.29;57.93;99694.56;5026821;28;20107;-26
2022/07/31 06:08:04;;;;;;;6.78;4.13;;;;;;;25.72;56.24;99704.50;5026990;28;20108;-28
2022/07/31 06:10:29;;;;;;;6.53;3.92;;;;;;;25.74;55.92;99700.31;5027790;28;20029;-27
2022/07/31 06:12:55;;;;;;;5.80;3.90;;;;;;;25.58;55.69;99711.00;5027855;28;20044;-29
2022/07/31 06:15:20;;;;;;;7.45;4.30;;;;;;;25.69;54.54;99705.97;5031043;28;20504;-30
2022/07/31 06:17:46;;;;;;;7.78;3.80;;;;;;;25.65;54.95;99692.16;5047280;28;20057;-28
2022/07/31 06:20:13;;;;;;;7.30;4.40;;;;;;;26.00;54.15;99696.66;5029197;28;20036;-29
2022/07/31 06:22:39;;;;;;;7.30;3.70;;;;;;;25.57;54.63;99687.56;5028139;28;20494;-28
2022/07/31 06:25:07;;;;;;;7.07;3.90;;;;;;;25.89;54.13;99703.59;5026611;28;20032;-27
2022/07/31 06:27:33;;;;;;;;;;;;;;;26.08;53.81;99703.22;5028983;28;20049;-29
2022/07/31 06:29:58;;;;;;;7.80;4.28;;;;;;;26.15;54.31;99698.00;5031537;28;19913;-28
2022/07/31 06:32:24;;;;;;;6.47;4.15;;;;;;;26.21;52.94;99685.75;5030745;28;20465;-37
2022/07/31 06:34:49;;;;;;;7.65;4.20;;;;;;;26.35;52.69;99696.41;5030480;28;20037;-27
2022/07/31 06:37:15;;;;;;;6.55;4.30;;;;;;;26.44;52.23;99699.91;5032139;28;20507;-27
2022/07/31 06:39:40;;;;;;;6.30;4.07;;;;;;;26.45;52.07;99691.34;5030409;28;20523;-29
2022/07/31 06:42:06;;;;;;;7.15;3.92;;;;;;;26.37;52.30;99700.41;5031354;28;20398;-31
2022/07/31 06:44:32;;;;;;;6.82;4.00;;;;;;;26.51;52.05;99689.22;5031015;28;20080;-30
2022/07/31 06:46:58;;;;;;;6.95;4.47;;;;;;;26.55;51.35;99690.13;5029776;28;20071;-35
2022/07/31 06:49:24;;;;;;;7.05;4.68;;;;;;;26.55;52.09;99678.41;5031053;28;20041;-27
2022/07/31 06:51:50;;;;;;;7.88;4.10;;;;;;;26.83;50.75;99671.25;5030122;28;20091;-27
2022/07/31 06:54:16;;;;;;;8.10;4.70;;;;;;;26.94;50.82;99687.22;5029900;28;20883;-30
2022/07/31 06:56:41;;;;;;;6.95;4.25;;;;;;;27.23;50.23;99687.06;5031006;28;20661;-31
2022/07/31 06:59:07;;;;;;;7.38;4.25;;;;;;;27.20;49.24;99676.78;5030900;28;20120;-30
2022/07/31 07:01:32;;;;;;;7.45;4.22;;;;;;;27.19;50.67;99682.59;5031073;28;20419;-28
2022/07/31 07:03:58;;;;;;;8.52;4.32;;;;;;;27.36;51.09;99687.09;5029201;28;20029;-31
2022/07/31 07:06:24;;;;;;;6.93;4.40;;;;;;;27.65;49.37;99694.31;5029703;28;20029;-33
2022/07/31 07:08:50;;;;;;;6.80;4.45;;;;;;;27.63;49.79;99678.22;5031270;28;20034;-28
2022/07/31 07:11:16;;;;;;;6.63;4.22;;;;;;;27.26;49.10;99680.16;5029255;28;20040;-29
2022/07/31 07:13:41;;;;;;;6.95;4.50;;;;;;;27.20;49.65;99676.78;5030730;28;20029;-30
2022/07/31 07:16:07;;;;;;;7.45;4.65;;;;;;;27.60;49.13;99691.78;5030403;28;20032;-28
2022/07/31 07:18:33;;;;;;;5.75;4.28;;;;;;;27.60;48.49;99687.13;5028925;28;20502;-30
2022/07/31 07:20:58;;;;;;;10.75;5.05;;;;;;;27.60;49.44;99662.47;5030547;28;20039;-28
2022/07/31 07:23:24;;;;;;;8.65;4.70;;;;;;;28.17;49.03;99687.31;5030918;28;20030;-32
2022/07/31 07:25:50;;;;;;;7.75;4.60;;;;;;;28.38;47.70;99685.19;5030777;28;20394;-27
2022/07/31 07:28:16;;;;;;;7.13;4.30;;;;;;;28.05;47.14;99688.94;5029390;28;20289;-27
2022/07/31 07:30:42;;;;;;;6.90;4.90;;;;;;;28.12;47.65;99666.41;5028948;28;20030;-27
2022/07/31 07:33:08;;;;;;;6.15;4.43;;;;;;;28.36;47.21;99682.00;5028797;28;20026;-36
2022/07/31 07:35:33;;;;;;;6.28;4.50;;;;;;;28.50;47.02;99686.31;5029329;28;20070;-28
2022/07/31 07:37:59;;;;;;;8.98;4.50;;;;;;;28.55;45.24;99689.63;5029717;28;20021;-30
2022/07/31 07:40:25;;;;;;;6.60;4.53;;;;;;;28.39;45.30;99670.31;5028624;28;20035;-29
2022/07/31 07:42:51;;;;;;;6.18;4.25;;;;;;;28.64;45.61;99689.47;5028898;28;20433;-27
2022/07/31 07:45:17;;;;;;;6.88;4.32;;;;;;;28.56;46.72;99682.19;5028808;28;20033;-31
2022/07/31 07:47:43;;;;;;;7.53;4.70;;;;;;;28.99;45.70;99688.81;5028569;28;20044;-27
2022/07/31 07:50:09;;;;;;;5.68;4.28;;;;;;;28.97;45.36;99688.38;5030297;28;20039;-29
2022/07/31 07:52:36;;;;;;;7.78;4.93;;;;;;;28.84;45.58;99674.72;5028533;28;20541;-28
2022/07/31 07:55:02;;;;;;;5.75;4.30;;;;;;;28.59;45.69;99684.22;5028663;28;20029;-27
2022/07/31 07:57:28;;;;;;;6.05;4.70;;;;;;;28.41;46.06;99683.69;5028975;28;20056;-27
2022/07/31 07:59:54;;;;;;;5.97;4.30;;;;;;;28.31;45.81;99684.19;5028438;28;20029;-30
2022/07/31 08:02:19;;;;;;;6.68;4.80;;;;;;;28.40;45.65;99682.09;5030209;28;20044;-29
2022/07/31 08:04:45;;;;;;;8.10;4.75;;;;;;;28.58;45.05;99672.44;5028233;28;20033;-27
2022/07/31 08:07:10;;;;;;;7.10;4.97;;;;;;;28.44;46.54;99666.53;5028434;28;20025;-27
2022/07/31 08:09:36;;;;;;;6.35;4.63;;;;;;;28.72;45.92;99663.03;5029876;28;20029;-32
2022/07/31 08:12:02;;;;;;;7.25;4.35;;;;;;;28.98;44.60;99673.50;5029709;28;20545;-28
2022/07/31 08:14:28;;;;;;;7.78;4.47;;;;;;;28.91;44.88;99674.13;5027974;28;20135;-31
2022/07/31 08:16:54;;;;;;;7.85;5.03;;;;;;;28.83;45.17;99667.66;5027780;28;20049;-30
2022/07/31 08:19:20;;;;;;;8.15;5.05;;;;;;;28.92;45.22;99664.72;5029545;28;20044;-35
2022/07/31 08:21:46;;;;;;;7.55;4.63;;;;;;;28.79;45.14;99660.44;5028077;28;20033;-26
2022/07/31 08:24:11;;;;;;;6.88;5.03;;;;;;;28.71;44.10;99654.00;5028060;28;20033;-28
2022/07/31 08:29:23;;;;;;;8.52;5.35;;;;;;;28.83;45.90;99662.16;5029454;28;20083;-29
2022/07/31 08:31:50;;;;;;;8.27;5.53;;;;;;;28.96;45.71;99646.41;5027923;28;20033;-29
2022/07/31 08:34:16;;;;;;;7.22;5.65;;;;;;;29.48;44.27;99641.81;5028034;28;20055;-29
2022/07/31 08:36:42;;;;;;;8.02;5.72;;;;;;;29.75;43.64;99655.78;5029245;28;20109;-26
2022/07/31 08:39:08;;;;;;;8.32;5.20;;;;;;;30.14;41.77;99647.59;5029062;28;20113;-33
2022/07/31 08:41:37;;;;;;;7.90;5.38;;;;;;;30.14;43.40;99653.09;5027817;28;20563;-29
2022/07/31 08:44:06;;;;;;;8.43;6.45;;;;;;;30.25;41.69;99662.38;5027893;28;20025;-29
2022/07/31 08:46:36;;;;;;;7.72;5.82;;;;;;;30.58;41.49;99653.63;5029132;28;20030;-31
2022/07/31 08:49:03;;;;;;;10.52;5.88;;;;;;;30.70;42.49;99649.94;5029089;28;20039;-29
2022/07/31 08:51:33;;;;;;;8.82;6.03;;;;;;;30.69;41.18;99642.84;5031598;28;20029;-28
2022/07/31 08:54:01;;;;;;;8.05;5.50;;;;;;;30.34;42.16;99638.25;5040624;28;20845;-33
2022/07/31 08:56:28;;;;;;;9.85;6.13;;;;;;;30.68;42.01;99645.97;5027089;28;20136;-28
2022/07/31 08:58:56;;;;;;;9.82;6.70;;;;;;;30.80;41.81;99646.56;5027410;28;20124;-29
2022/07/31 09:01:21;;;;;;;8.85;6.05;;;;;;;31.08;40.79;99631.75;5029159;28;20041;-30
2022/07/31 09:03:47;;;;;;;11.40;6.13;;;;;;;31.26;40.14;99642.25;5028552;28;20068;-29
2022/07/31 09:06:13;;;;;;;7.30;6.10;;;;;;;30.95;40.51;99627.59;5028601;28;20108;-29
2022/07/31 09:08:38;;;;;;;10.88;6.40;;;;;;;31.01;39.37;99643.44;5028176;28;20025;-29
2022/07/31 09:11:06;;;;;;;7.80;6.30;;;;;;;31.15;39.72;99647.59;5028315;28;20030;-28
2022/07/31 09:13:33;;;;;;;10.98;6.65;;;;;;;31.43;40.10;99636.25;5027347;28;20106;-30
2022/07/31 09:15:59;;;;;;;;;;;;;;;31.72;39.11;99642.19;5027372;28;20034;-31
2022/07/31 09:18:25;;;;;;;9.07;6.63;;;;;;;31.69;39.57;99629.16;5026652;28;20347;-33
2022/07/31 09:20:59;;;;;;;9.75;6.70;;;;;;;31.48;39.89;99624.91;5027999;28;20473;-28
2022/07/31 09:23:26;;;;;;;8.32;6.78;;;;;;;31.52;40.65;99605.69;5026669;28;20484;-30
2022/07/31 09:25:58;;;;;;;7.60;6.55;;;;;;;31.94;38.64;99616.50;5027021;28;20056;-28
2022/07/31 09:28:35;;;;;;;8.35;7.20;;;;;;;32.22;38.91;99626.31;5026944;28;20406;-36
2022/07/31 09:31:03;;;;;;;7.85;7.05;;;;;;;32.55;37.65;99617.28;5026785;28;20021;-29
2022/07/31 09:33:29;;;;;;;8.27;6.95;;;;;;;32.77;35.94;99607.22;5026711;28;20048;-32
2022/07/31 09:35:56;;;;;;;7.35;6.63;;;;;;;32.58;37.46;99605.47;5027490;28;20036;-29
2022/07/31 09:38:29;;;;;;;9.65;6.70;;;;;;;32.59;37.38;99607.06;5025097;28;20477;-30
2022/07/31 09:40:55;;;;;;;8.60;6.63;;;;;;;32.63;37.03;99612.59;5026624;28;20094;-33
2022/07/31 09:43:26;;;;;;;9.88;6.85;;;;;;;32.76;36.35;99594.59;5026091;28;20025;-30
2022/07/31 09:46:03;;;;;;;8.95;6.85;;;;;;;32.99;35.92;99604.66;5026083;28;20087;-32
2022/07/31 09:48:29;;;;;;;7.97;7.18;;;;;;;33.27;35.96;99606.09;5025746;28;20512;-31
2022/07/31 09:51:03;;;;;;;9.20;7.18;;;;;;;33.42;35.42;99591.97;5027408;28;20034;-29
2022/07/31 09:53:49;;;;;;;10.50;7.25;;;;;;;33.64;33.86;99594.09;5026279;28;20555;-32
2022/07/31 09:56:15;;;;;;;7.93;6.22;;;;;;;33.03;34.84;99602.72;5026293;28;20091;-29
2022/07/31 09:58:41;;;;;;;10.35;6.80;;;;;;;33.14;35.05;99584.28;5025713;28;20568;-33
2022/07/31 10:01:09;;;;;;;8.07;6.80;;;;;;;33.53;35.78;99575.47;5026009;28;20036;-33
2022/07/31 10:03:35;;;;;;;;;;;;;;;33.96;34.67;99580.41;5032106;28;20556;-29
2022/07/31 10:06:03;;;;;;;7.60;6.80;;;;;;;34.10;34.32;99580.47;5029959;28;19924;-31
2022/07/31 10:08:35;;;;;;;9.38;6.88;;;;;;;33.99;33.25;99555.53;5029938;28;20033;-31
2022/07/31 10:11:06;;;;;;;9.15;7.30;;;;;;;33.48;34.39;99578.56;5028086;28;20116;-35
2022/07/31 10:13:36;;;;;;;9.32;6.82;;;;;;;32.87;35.16;99580.88;5026776;28;20666;-37
2022/07/31 10:16:03;;;;;;;7.45;6.65;;;;;;;33.18;33.63;99576.00;5031048;28;20044;-30
2022/07/31 10:18:33;;;;;;;7.97;6.82;;;;;;;33.59;33.18;99557.31;5031051;28;20084;-29
2022/07/31 10:21:02;;;;;;;8.10;7.07;;;;;;;33.69;33.42;99549.47;5030038;28;20037;-30
2022/07/31 10:23:29;;;;;;;9.52;6.88;;;;;;;34.03;33.12;99545.28;5029660;28;20084;-30
2022/07/31 10:25:59;;;;;;;8.60;7.03;;;;;;;34.40;32.91;99560.78;5029067;28;20025;-29
2022/07/31 10:28:25;;;;;;;8.25;7.13;;;;;;;34.65;31.71;99554.53;5030472;28;20510;-30
2022/07/31 10:30:51;;;;;;;8.60;6.60;;;;;;;34.58;31.15;99543.44;5029412;28;20029;-31
2022/07/31 10:33:18;;;;;;;8.55;6.65;;;;;;;34.51;31.53;99555.28;5029684;28;20037;-33
2022/07/31 10:35:54;;;;;;;10.15;7.13;;;;;;;34.14;32.45;99542.59;5029683;28;20061;-36
2022/07/31 10:38:26;;;;;;;10.43;6.85;;;;;;;34.11;31.93;99554.38;5028720;28;20116;-29
2022/07/31 10:41:06;;;;;;;9.45;6.82;;;;;;;34.14;33.66;99544.53;5013426;28;20033;-30
2022/07/31 10:43:42;;;;;;;8.07;6.88;;;;;;;34.44;31.08;99546.19;5028494;28;20039;-39
2022/07/31 10:46:08;;;;;;;7.88;7.07;;;;;;;34.40;33.13;99537.88;5025586;28;20052;-38
2022/07/31 10:48:33;;;;;;;9.30;7.07;;;;;;;34.45;32.04;99548.56;5027688;28;20437;-31
2022/07/31 10:51:01;;;;;;;8.02;6.55;;;;;;;34.88;31.20;99532.00;5027462;28;20024;-39
2022/07/31 10:53:27;;;;;;;10.38;6.65;;;;;;;34.90;31.01;99537.13;5025761;28;20036;-33
2022/07/31 10:56:11;;;;;;;7.60;6.47;;;;;;;35.00;30.84;99542.66;5030447;28;20025;-30
2022/07/31 10:58:50;;;;;;;9.48;6.95;;;;;;;35.05;31.02;99544.22;5030295;28;20518;-32
2022/07/31 11:01:16;;;;;;;8.23;7.32;;;;;;;35.00;31.57;99536.31;5028849;28;20029;-30
2022/07/31 11:03:48;;;;;;;9.32;7.70;;;;;;;35.31;31.63;99539.44;5029084;28;20559;-33
2022/07/31 11:06:16;;;;;;;9.10;7.13;;;;;;;35.06;31.50;99531.94;5029391;28;20029;-31
2022/07/31 11:08:51;;;;;;;9.82;7.75;;;;;;;34.84;31.59;99531.19;5028847;28;20305;-30
2022/07/31 11:11:17;;;;;;;8.18;6.72;;;;;;;34.60;31.88;99524.44;5029970;28;20401;-29
2022/07/31 11:13:48;;;;;;;10.48;7.60;;;;;;;35.14;31.25;99514.13;5028424;28;20045;-30
2022/07/31 11:16:14;;;;;;;8.75;6.88;;;;;;;35.50;31.08;99525.16;5047163;28;20424;-30
2022/07/31 11:18:39;;;;;;;9.45;7.68;;;;;;;35.57;29.91;99539.00;5046428;28;20061;-33
2022/07/31 11:21:08;;;;;;;8.65;7.75;;;;;;;35.60;30.69;99532.63;5029850;28;20049;-34
2022/07/31 11:23:36;;;;;;;8.13;7.30;;;;;;;35.74;30.29;99528.25;5028522;28;20091;-30
2022/07/31 11:26:04;;;;;;;8.88;7.55;;;;;;;35.76;30.85;99525.88;5028018;28;20044;-30
2022/07/31 11:28:30;;;;;;;9.63;7.00;;;;;;;35.68;29.54;99529.88;5026836;28;20030;-34
2022/07/31 11:31:03;;;;;;;10.73;6.78;;;;;;;35.13;30.56;99512.56;5027222;28;20750;-30
2022/07/31 11:33:39;;;;;;;8.90;7.15;;;;;;;35.13;30.67;99526.41;5027394;28;20021;-29
2022/07/31 11:36:19;;;;;;;8.02;7.10;;;;;;;35.27;30.15;99524.81;5025594;28;20087;-33